• Join FlightAware (Why Join?)
  • Login
  • US Flag GB Flag 
18:25 EDT


 

Airport Tracker/Info


-or-


 

Live Flight TrackerFlight Track Log ✈ N180KT ✈ 17-May-2013 ✈ KCDN - KRYY

Flight Track Log - Related Links

Times and Time Zones

All times are in EDT time to prevent confusion due to time zone crossing. See the N180KT flight status page for this flight to view local times or setup timezone preferences in your user account.

Time Position Orientation Groundspeed Altitude Reporting Facility
EDT Latitude Longitude Course Direction KTS MPH feet Rate Location/Type
17:07 34.2833 -80.8811 270° West  Level FlightAware Approximate
17:08 34.2833 -80.9284 270° West  Level FlightAware Approximate
17:09 34.2751 -80.9745 256° West  Level FlightAware Approximate
17:10 34.2651 -81.0201 241° Southwest  Level FlightAware Approximate
17:11 34.2459 -81.0613 241° Southwest  Level FlightAware Approximate
17:12 34.2267 -81.1025 241° Southwest  Level FlightAware Approximate
17:13 34.2075 -81.1437 241° Southwest  Level FlightAware Approximate
17:14 34.1883 -81.1848 241° Southwest  Level FlightAware Approximate
17:15 34.1691 -81.2259 241° Southwest  Level FlightAware Approximate
17:16 34.1498 -81.2670 237° Southwest  Level FlightAware Approximate
17:17 34.1287 -81.3068 237° Southwest  Level FlightAware Approximate
17:18 34.1075 -81.3465 237° Southwest  Level FlightAware Approximate
17:19 34.0864 -81.3862 237° Southwest  Level FlightAware Approximate
17:20 34.0652 -81.4258 237° Southwest  Level FlightAware Approximate
17:21 34.0440 -81.4655 237° Southwest  Level FlightAware Approximate
17:22 34.0229 -81.5051 237° Southwest  Level FlightAware Approximate
17:23 34.0040 -81.5463 243° Southwest  Level FlightAware Approximate
17:24 33.9861 -81.5882 243° Southwest  Level FlightAware Approximate
17:25 33.9681 -81.6301 243° Southwest  Level FlightAware Approximate
17:26 33.9502 -81.6720 243° Southwest  Level FlightAware Approximate
17:27 33.9322 -81.7138 243° Southwest  Level FlightAware Approximate
17:28 33.9341 -81.7619 273° West  Level Estimated
17:29 33.9360 -81.8095 273° West  Level Estimated
17:30 33.9378 -81.8570 273° West  Level Estimated
17:31 33.9397 -81.9046 273° West  Level Estimated
17:32 33.9415 -81.9521 273° West  Level Estimated
17:33 33.9433 -81.9997 273° West  Level Estimated
17:34 33.9450 -82.0472 273° West  Level Estimated
17:35 33.9468 -82.0948 273° West  Level Estimated
17:36 33.9485 -82.1424 273° West  Level Estimated
17:37 33.9502 -82.1899 273° West  Level Estimated
17:38 33.9519 -82.2375 272° West  Level Estimated
17:39 33.9536 -82.2850 272° West  Level Estimated
17:40 33.9553 -82.3326 272° West  Level Estimated
17:41 33.9569 -82.3802 272° West  Level Estimated
17:42 33.9585 -82.4278 272° West  Level Estimated
17:43 33.9602 -82.4753 272° West  Level Estimated
17:44 33.9618 -82.5229 272° West  Level Estimated
17:45 33.9633 -82.5705 272° West  Level Estimated
17:45 34.0333 -82.8333 272° West 153 176 8,000  Level Atlanta TRACON
17:46 33.9649 -82.6181 272° West  Level Estimated
17:46 34.0333 -82.8833 270° West 156 180 8,000  Level Atlanta TRACON
17:47 33.9664 -82.6656 272° West  Level Estimated
17:47 34.0500 -82.9333 292° West 153 176 8,000  Level Atlanta TRACON
17:48 33.9679 -82.7132 272° West  Level Estimated
17:49 33.9694 -82.7608 272° West  Level Estimated
17:49 34.0451 -82.9942 264° West  Level FlightAware Approximate
17:50 33.9709 -82.8084 272° West  Level Estimated
17:50 34.0500 -83.0833 264° West 154 177 8,000  Level Atlanta TRACON
17:51 34.0667 -83.1333 292° West 153 176 8,000 -300 Level Atlanta TRACON
17:52 34.0667 -83.1833 270° West 166 191 7,500 -480 Descending Atlanta TRACON
17:53 34.0667 -83.2500 270° West 168 193 7,100 -420 Descending Atlanta TRACON
17:54 34.0833 -83.3000 292° West 169 194 6,700 -480 Descending Atlanta TRACON
17:55 34.0833 -83.3500 270° West 172 198 6,300 -360 Descending Atlanta TRACON
17:56 34.0179 -83.3262 264° West  Level FlightAware Approximate
17:56 34.0833 -83.4167 270° West 166 191 6,000  Level Atlanta TRACON
17:57 34.1000 -83.4667 292° West 159 183 6,000  Level Atlanta TRACON
17:58 34.1000 -83.5167 270° West 160 184 6,000  Level Atlanta TRACON
17:59 34.1000 -83.5667 270° West 162 186 6,000  Level Atlanta TRACON
18:00 34.1167 -83.6167 292° West 158 182 6,000  Level Atlanta TRACON
18:01 34.1167 -83.6667 270° West 156 180 6,000  Level Atlanta TRACON
18:02 34.1167 -83.7333 270° West 156 180 6,000  Level Atlanta TRACON
18:03 34.1167 -83.7833 270° West 159 183 6,000  Level Atlanta TRACON
18:04 34.1333 -83.8333 292° West 159 183 6,000  Level Atlanta TRACON
18:05 34.1333 -83.8833 270° West 159 183 6,000  Level Atlanta TRACON
18:06 34.1333 -83.9333 270° West 153 176 6,000  Level Atlanta TRACON
18:07 34.1167 -83.9833 248° West 153 176 6,000 -180 Level Atlanta TRACON
18:08 34.1167 -84.0333 270° West 159 183 5,700 -420 Descending Atlanta TRACON
18:09 34.1000 -84.0833 248° West 147 169 5,300 -540 Descending Atlanta TRACON
18:10 34.1000 -84.1333 270° West 153 176 4,700 -540 Descending Atlanta TRACON
18:12 34.0833 -84.2167 256° West 138 159 3,800 -480 Descending Atlanta TRACON
18:13 34.0667 -84.2667 248° West 137 158 3,300 -420 Descending Atlanta TRACON
18:14 34.0667 -84.3000 270° West 135 155 3,000 -180 Descending Atlanta TRACON
18:15 34.0500 -84.3500 248° West 137 158 3,000  Level Atlanta TRACON
18:16 34.0500 -84.3833 270° West 132 152 3,000  Level Atlanta TRACON
18:17 34.0333 -84.4333 248° West 126 145 3,000 -120 Level Atlanta TRACON
18:18 34.0167 -84.4667 239° Southwest 132 152 2,800 -360 Descending Atlanta TRACON
18:19 34.0167 -84.5000 270° West 126 145 2,400 -540 Descending Atlanta TRACON
18:20 34.0167 -84.5333 270° West 101 116 1,800 -600 Descending Atlanta TRACON
18:22 34.0000 -84.5833 257° West  Level FlightAware Approximate